Time;durP1;ratioP1;P1;durP2;ratioP2;P2;SDS_P1;SDS_P2;PMS_P1;PMS_P2;Temp;Humidity;BMP_temperature;BMP_pressure;BME280_temperature;BME280_humidity;BME280_pressure;Samples;Min_cycle;Max_cycle;Signal;HPM_P1;HPM_P2
2022/04/04 00:01:41;;;;;;;15.27;13.77;;;0.80;99.90;;;;;;6204015;23;20210;-83
2022/04/04 00:04:08;;;;;;;16.83;14.13;;;0.70;99.90;;;;;;6195657;23;20182;-83
2022/04/04 00:06:35;;;;;;;16.35;14.27;;;0.70;99.90;;;;;;6192412;23;20191;-82
2022/04/04 00:09:01;;;;;;;18.35;14.93;;;0.70;99.90;;;;;;6193253;23;20174;-83
2022/04/04 00:11:29;;;;;;;18.88;14.40;;;0.70;99.90;;;;;;6192066;23;20202;-83
2022/04/04 00:13:57;;;;;;;19.92;15.48;;;0.70;99.90;;;;;;6197868;23;20167;-83
2022/04/04 00:16:23;;;;;;;18.95;15.95;;;0.70;99.90;;;;;;6196619;23;20177;-83
2022/04/04 00:18:50;;;;;;;21.67;16.05;;;0.70;99.90;;;;;;6209881;23;20189;-81
2022/04/04 00:21:17;;;;;;;18.77;15.93;;;0.70;99.90;;;;;;6206485;23;20195;-80
2022/04/04 00:23:44;;;;;;;24.23;18.02;;;0.70;99.90;;;;;;6205104;23;20180;-80
2022/04/04 00:26:10;;;;;;;22.50;16.77;;;0.60;99.90;;;;;;6207346;23;20230;-82
2022/04/04 00:28:39;;;;;;;19.35;16.42;;;0.60;99.90;;;;;;6208152;23;20197;-81
2022/04/04 00:31:07;;;;;;;22.65;16.77;;;0.60;99.90;;;;;;6208729;23;20224;-81
2022/04/04 00:33:34;;;;;;;20.58;16.75;;;0.60;99.90;;;;;;6198009;23;20190;-81
2022/04/04 00:36:01;;;;;;;24.20;18.27;;;0.60;99.90;;;;;;6206559;23;20179;-83
2022/04/04 00:38:28;;;;;;;21.92;14.75;;;0.60;99.90;;;;;;6192404;23;20203;-83
2022/04/04 00:40:55;;;;;;;19.23;16.67;;;0.50;99.90;;;;;;6191639;23;20207;-83
2022/04/04 00:43:22;;;;;;;25.85;18.55;;;0.60;99.90;;;;;;6189717;23;20186;-83
2022/04/04 00:45:49;;;;;;;21.88;18.00;;;0.60;99.90;;;;;;6189945;23;20202;-83
2022/04/04 00:48:17;;;;;;;19.23;17.23;;;0.50;99.90;;;;;;6190621;23;20191;-83
2022/04/04 00:50:44;;;;;;;26.20;18.23;;;0.50;99.90;;;;;;6190016;23;20211;-82
2022/04/04 00:53:11;;;;;;;26.40;20.05;;;0.50;99.90;;;;;;6189487;23;20241;-83
2022/04/04 00:55:38;;;;;;;20.33;16.60;;;0.60;99.90;;;;;;6190218;23;20175;-83
2022/04/04 00:58:06;;;;;;;24.25;18.00;;;0.60;99.90;;;;;;6196100;23;20175;-82
2022/04/04 01:00:33;;;;;;;21.35;17.95;;;0.50;99.90;;;;;;6191301;23;20270;-83
2022/04/04 01:03:00;;;;;;;20.65;16.67;;;0.50;99.90;;;;;;6191268;23;20176;-82
2022/04/04 01:05:30;;;;;;;22.45;17.15;;;0.40;99.90;;;;;;6191168;23;20209;-83
2022/04/04 01:07:57;;;;;;;25.05;17.42;;;0.40;99.90;;;;;;6191593;23;20194;-82
2022/04/04 01:10:24;;;;;;;22.35;17.92;;;0.40;99.90;;;;;;6193111;23;20198;-81
2022/04/04 01:12:52;;;;;;;21.85;18.65;;;0.40;99.90;;;;;;6193391;23;20179;-83
2022/04/04 01:15:19;;;;;;;23.75;20.55;;;0.30;99.90;;;;;;6192156;23;20190;-82
2022/04/04 01:17:46;;;;;;;21.42;19.13;;;0.30;99.90;;;;;;6203918;23;20167;-81
2022/04/04 01:20:14;;;;;;;26.35;19.95;;;0.30;99.90;;;;;;6191921;23;20200;-81
2022/04/04 01:22:45;;;;;;;21.88;18.15;;;0.30;99.90;;;;;;6197605;23;20504;-81
2022/04/04 01:25:14;;;;;;;23.83;18.20;;;0.30;99.90;;;;;;6208541;23;20159;-81
2022/04/04 01:27:40;;;;;;;22.65;19.05;;;0.30;99.90;;;;;;6193050;23;20661;-82
2022/04/04 01:30:08;;;;;;;20.67;18.35;;;0.40;99.90;;;;;;6189729;23;20202;-83
2022/04/04 01:32:35;;;;;;;22.05;18.23;;;0.30;99.90;;;;;;6205457;23;20179;-82
2022/04/04 01:35:02;;;;;;;23.00;18.45;;;0.30;99.90;;;;;;6198628;23;20637;-83
2022/04/04 01:37:28;;;;;;;30.90;19.20;;;0.30;99.90;;;;;;6192534;23;20527;-81
2022/04/04 01:39:55;;;;;;;28.00;20.00;;;0.30;99.90;;;;;;6192032;23;20254;-83
2022/04/04 01:42:23;;;;;;;23.35;18.10;;;0.20;99.90;;;;;;6191404;23;20175;-83
2022/04/04 01:44:50;;;;;;;21.67;17.63;;;0.20;99.90;;;;;;6191358;23;20181;-82
2022/04/04 01:47:17;;;;;;;21.23;18.85;;;0.20;99.90;;;;;;6191049;23;20194;-82
2022/04/04 01:49:43;;;;;;;19.83;17.38;;;0.20;99.90;;;;;;6199881;23;20207;-80
2022/04/04 01:52:10;;;;;;;28.65;20.10;;;0.20;99.90;;;;;;6212302;23;20158;-82
2022/04/04 01:54:37;;;;;;;22.92;17.60;;;0.20;99.90;;;;;;6193902;23;20179;-82
2022/04/04 01:57:04;;;;;;;22.90;19.40;;;0.20;99.90;;;;;;6191824;23;20179;-82
2022/04/04 01:59:32;;;;;;;22.35;18.77;;;0.20;99.90;;;;;;6190970;23;20175;-82
2022/04/04 02:01:59;;;;;;;27.02;18.10;;;0.10;99.90;;;;;;6190399;23;20255;-81
2022/04/04 02:04:26;;;;;;;24.00;18.15;;;0.10;99.90;;;;;;6191222;23;20215;-82
2022/04/04 02:06:52;;;;;;;28.38;19.58;;;0.10;99.90;;;;;;6191320;23;20175;-83
2022/04/04 02:09:19;;;;;;;27.45;19.25;;;0.10;99.90;;;;;;6192902;23;20187;-83
2022/04/04 02:11:47;;;;;;;25.10;18.98;;;0.00;99.90;;;;;;6202830;23;20191;-82
2022/04/04 02:14:15;;;;;;;21.92;19.10;;;0.00;99.90;;;;;;6194005;23;20567;-82
2022/04/04 02:16:43;;;;;;;24.67;18.33;;;0.00;99.90;;;;;;6200013;23;20181;-82
2022/04/04 02:19:10;;;;;;;25.05;18.80;;;0.00;99.90;;;;;;6191984;23;20178;-82
2022/04/04 02:21:37;;;;;;;30.02;19.63;;;0.00;99.90;;;;;;6192438;23;20704;-83
2022/04/04 02:24:05;;;;;;;24.48;18.92;;;0.00;99.90;;;;;;6206485;23;20209;-81
2022/04/04 02:26:31;;;;;;;30.95;20.45;;;0.00;99.90;;;;;;6202047;23;20179;-82
2022/04/04 02:28:58;;;;;;;23.83;17.98;;;0.00;99.90;;;;;;6193184;23;20222;-83
2022/04/04 02:31:25;;;;;;;27.05;19.67;;;-0.10;99.90;;;;;;6191290;23;20282;-83
2022/04/04 02:33:53;;;;;;;24.45;20.40;;;-0.10;99.90;;;;;;6204927;23;20230;-81
2022/04/04 02:36:20;;;;;;;23.08;17.80;;;-0.10;99.90;;;;;;6212013;23;20189;-82
2022/04/04 02:38:47;;;;;;;23.30;19.40;;;0.00;99.90;;;;;;6203518;23;20214;-81
2022/04/04 02:41:14;;;;;;;22.73;19.45;;;0.10;99.90;;;;;;6209438;23;20186;-82
2022/04/04 02:43:41;;;;;;;23.25;20.10;;;0.00;99.90;;;;;;6203815;23;20175;-83
2022/04/04 02:46:08;;;;;;;27.98;19.92;;;0.00;99.90;;;;;;6194603;23;20508;-82
2022/04/04 02:48:35;;;;;;;26.83;21.40;;;0.00;99.90;;;;;;6202120;23;20183;-82
2022/04/04 02:51:03;;;;;;;24.85;20.33;;;0.00;99.90;;;;;;6206288;23;20213;-82
2022/04/04 02:53:30;;;;;;;24.25;20.40;;;0.00;99.90;;;;;;6200437;23;20261;-83
2022/04/04 02:58:41;;;;;;;24.73;20.08;;;0.00;99.90;;;;;;6192130;23;20189;-82
2022/04/04 03:01:08;;;;;;;29.40;19.80;;;0.00;99.90;;;;;;6190319;23;20253;-82
2022/04/04 03:03:35;;;;;;;28.83;20.58;;;0.00;99.90;;;;;;6190459;23;20186;-82
2022/04/04 03:06:04;;;;;;;27.92;18.90;;;-0.10;99.90;;;;;;6190672;23;20656;-82
2022/04/04 03:08:31;;;;;;;27.35;20.65;;;0.00;99.90;;;;;;6190600;23;20205;-81
2022/04/04 03:10:57;;;;;;;25.98;18.42;;;-0.10;99.90;;;;;;6190437;23;20558;-82
2022/04/04 03:13:25;;;;;;;22.08;18.02;;;-0.10;99.90;;;;;;6190930;23;20179;-82
2022/04/04 03:15:51;;;;;;;30.90;21.05;;;-0.10;99.90;;;;;;6195220;23;20167;-80
2022/04/04 03:18:18;;;;;;;25.70;19.92;;;-0.10;99.90;;;;;;6205665;23;20175;-82
2022/04/04 03:20:45;;;;;;;27.42;18.95;;;-0.10;99.90;;;;;;6202035;23;20193;-79
2022/04/04 03:23:13;;;;;;;24.67;18.80;;;-0.10;99.90;;;;;;6207749;23;20185;-81
2022/04/04 03:25:40;;;;;;;25.88;20.25;;;-0.20;99.90;;;;;;6205734;23;20576;-83
2022/04/04 03:28:07;;;;;;;27.52;20.73;;;-0.20;99.90;;;;;;6206962;23;20211;-79
2022/04/04 03:30:34;;;;;;;25.17;20.25;;;-0.20;99.90;;;;;;6206821;23;20195;-82
2022/04/04 03:33:01;;;;;;;25.73;19.77;;;-0.20;99.90;;;;;;6211817;23;20167;-82
2022/04/04 03:35:29;;;;;;;27.30;20.17;;;-0.20;99.90;;;;;;6213339;23;20169;-79
2022/04/04 03:37:57;;;;;;;22.13;19.83;;;-0.20;99.90;;;;;;6196024;23;20179;-81
2022/04/04 03:40:25;;;;;;;25.67;19.23;;;-0.20;99.90;;;;;;6187542;23;20206;-81
2022/04/04 03:42:55;;;;;;;27.42;21.38;;;-0.30;99.90;;;;;;6199305;23;20211;-80
2022/04/04 03:45:24;;;;;;;24.92;20.35;;;-0.20;99.90;;;;;;6206684;23;20175;-81
2022/04/04 03:47:50;;;;;;;25.70;20.88;;;-0.30;99.90;;;;;;6193067;23;20205;-81
2022/04/04 03:50:18;;;;;;;26.17;20.35;;;-0.30;99.90;;;;;;6192766;23;20548;-81
2022/04/04 03:52:48;;;;;;;23.70;18.58;;;-0.30;99.90;;;;;;6191060;23;20179;-81
2022/04/04 03:55:16;;;;;;;30.00;19.75;;;-0.30;99.90;;;;;;6189762;23;20179;-82
2022/04/04 03:57:44;;;;;;;22.05;18.10;;;-0.40;99.90;;;;;;6189630;23;20233;-81
2022/04/04 04:00:13;;;;;;;26.85;20.13;;;-0.40;99.90;;;;;;6189362;23;20506;-82
2022/04/04 04:02:39;;;;;;;24.67;18.90;;;-0.40;99.90;;;;;;6197575;23;20178;-82
2022/04/04 04:05:06;;;;;;;26.10;18.50;;;-0.40;99.90;;;;;;6191661;23;20492;-81
2022/04/04 04:07:34;;;;;;;25.20;19.10;;;-0.40;99.90;;;;;;6191379;23;20513;-82
2022/04/04 04:10:00;;;;;;;28.75;19.02;;;-0.40;99.90;;;;;;6196417;23;20208;-81
2022/04/04 04:12:27;;;;;;;25.58;17.95;;;-0.50;99.90;;;;;;6203918;23;20225;-81
2022/04/04 04:14:57;;;;;;;23.45;18.02;;;-0.50;99.90;;;;;;6201222;23;20194;-81
2022/04/04 04:17:25;;;;;;;21.27;19.05;;;-0.50;99.90;;;;;;6201646;23;20234;-81
2022/04/04 04:22:37;;;;;;;27.58;19.63;;;-0.50;99.90;;;;;;6199959;23;20609;-81
2022/04/04 04:25:06;;;;;;;23.98;18.33;;;-0.50;99.90;;;;;;6196268;23;20179;-83
2022/04/04 04:27:33;;;;;;;24.65;19.08;;;-0.50;99.90;;;;;;6195937;23;20179;-82
2022/04/04 04:30:01;;;;;;;26.45;20.00;;;-0.50;99.90;;;;;;6200429;23;20191;-82
2022/04/04 04:32:30;;;;;;;24.23;18.70;;;-0.50;99.90;;;;;;6194820;23;20178;-80
2022/04/04 04:34:57;;;;;;;21.15;18.58;;;-0.50;99.90;;;;;;6207385;23;20543;-80
2022/04/04 04:37:23;;;;;;;21.58;18.40;;;-0.50;99.90;;;;;;6201002;23;20184;-83
2022/04/04 04:39:50;;;;;;;27.08;19.65;;;-0.60;99.90;;;;;;6206428;23;20213;-81
2022/04/04 04:42:17;;;;;;;24.65;19.25;;;-0.50;99.90;;;;;;6194694;23;20554;-82
2022/04/04 04:44:44;;;;;;;32.00;20.70;;;-0.50;99.90;;;;;;6195591;23;20265;-82
2022/04/04 04:47:14;;;;;;;24.35;18.48;;;-0.60;99.90;;;;;;6197095;23;20202;-82
2022/04/04 04:49:41;;;;;;;24.25;17.52;;;-0.60;99.90;;;;;;6198859;23;20207;-82
2022/04/04 04:52:08;;;;;;;20.67;17.98;;;-0.60;99.90;;;;;;6187468;23;20278;-80
2022/04/04 04:54:34;;;;;;;21.95;16.52;;;-0.60;99.90;;;;;;6185067;23;20565;-80
2022/04/04 04:57:01;;;;;;;23.13;18.05;;;-0.60;99.90;;;;;;6187933;23;20269;-81
2022/04/04 04:59:27;;;;;;;27.45;17.75;;;-0.60;99.90;;;;;;6186945;23;20234;-81
2022/04/04 05:01:54;;;;;;;21.17;18.13;;;-0.60;99.90;;;;;;6188284;23;20571;-81
2022/04/04 05:04:22;;;;;;;23.40;17.30;;;-0.60;99.90;;;;;;6186760;23;20185;-81
2022/04/04 05:06:49;;;;;;;20.55;16.45;;;-0.60;99.90;;;;;;6186203;23;20225;-81
2022/04/04 05:09:17;;;;;;;21.30;17.02;;;-0.60;99.90;;;;;;6186434;23;20253;-80
2022/04/04 05:11:43;;;;;;;20.73;16.30;;;-0.50;99.90;;;;;;6186316;23;20199;-80
2022/04/04 05:14:15;;;;;;;23.33;18.08;;;-0.60;99.90;;;;;;6194647;23;20210;-79
2022/04/04 05:16:45;;;;;;;23.50;17.90;;;-0.50;99.90;;;;;;6203661;23;20159;-80
2022/04/04 05:19:12;;;;;;;19.48;16.08;;;-0.50;99.90;;;;;;6192862;23;20155;-78
2022/04/04 05:21:41;;;;;;;23.45;17.23;;;-0.50;99.90;;;;;;6187441;23;20198;-78
2022/04/04 05:24:09;;;;;;;21.02;16.00;;;-0.50;99.90;;;;;;6186434;23;20178;-78
2022/04/04 05:26:36;;;;;;;30.80;16.60;;;-0.50;99.90;;;;;;6186514;23;20788;-80
2022/04/04 05:29:03;;;;;;;22.40;18.00;;;-0.50;99.90;;;;;;6192679;23;20566;-79
2022/04/04 05:31:31;;;;;;;22.23;17.02;;;-0.40;99.90;;;;;;6192058;23;20203;-79
2022/04/04 05:33:58;;;;;;;22.83;18.42;;;-0.40;99.90;;;;;;6185836;23;20179;-79
2022/04/04 05:36:25;;;;;;;21.08;17.13;;;-0.40;99.90;;;;;;6191796;23;20206;-79
2022/04/04 05:38:56;;;;;;;20.40;16.70;;;-0.40;99.90;;;;;;6195809;23;20178;-80
2022/04/04 05:41:23;;;;;;;23.10;17.25;;;-0.40;99.90;;;;;;6189640;23;20195;-80
2022/04/04 05:43:50;;;;;;;19.20;15.05;;;-0.40;99.90;;;;;;6188136;23;20225;-77
2022/04/04 05:46:18;;;;;;;20.23;15.73;;;-0.30;99.90;;;;;;6187384;23;20179;-77
2022/04/04 05:48:45;;;;;;;20.25;16.63;;;-0.30;99.90;;;;;;6188422;23;20532;-79
2022/04/04 05:51:13;;;;;;;19.80;15.82;;;-0.30;99.90;;;;;;6193358;23;20233;-77
2022/04/04 05:53:40;;;;;;;22.13;17.13;;;-0.30;99.90;;;;;;6198751;23;20179;-79
2022/04/04 05:56:08;;;;;;;21.70;16.75;;;-0.30;99.90;;;;;;6203798;23;20171;-78
2022/04/04 05:58:36;;;;;;;22.42;16.52;;;-0.30;99.90;;;;;;6194655;23;20494;-78
2022/04/04 06:01:02;;;;;;;22.67;16.50;;;-0.20;99.90;;;;;;6191006;23;20214;-79
2022/04/04 06:03:29;;;;;;;28.42;17.00;;;-0.20;99.90;;;;;;6190185;23;20178;-77
2022/04/04 06:05:56;;;;;;;18.45;15.90;;;-0.20;99.90;;;;;;6188763;23;20715;-79
2022/04/04 06:08:23;;;;;;;22.52;15.18;;;-0.10;99.90;;;;;;6189421;23;20206;-79
2022/04/04 06:10:50;;;;;;;16.88;13.98;;;-0.10;99.90;;;;;;6188268;23;20203;-78
2022/04/04 06:13:19;;;;;;;17.48;14.25;;;0.00;99.90;;;;;;6186919;23;20179;-78
2022/04/04 06:15:47;;;;;;;18.73;15.27;;;0.00;99.90;;;;;;6188878;23;20175;-79
2022/04/04 06:18:15;;;;;;;27.23;16.67;;;0.00;99.90;;;;;;6187395;23;20175;-79
2022/04/04 06:20:42;;;;;;;19.05;15.07;;;0.00;99.90;;;;;;6189463;23;20214;-79
2022/04/04 06:23:09;;;;;;;21.10;15.15;;;0.10;99.90;;;;;;6191833;23;20187;-78
2022/04/04 06:25:36;;;;;;;17.02;14.32;;;0.10;99.90;;;;;;6189814;23;20483;-79
2022/04/04 06:28:03;;;;;;;20.85;15.80;;;0.10;99.90;;;;;;6184602;23;20237;-79
2022/04/04 06:30:31;;;;;;;23.17;16.33;;;0.20;99.90;;;;;;6186893;23;20203;-80
2022/04/04 06:32:58;;;;;;;19.40;15.38;;;0.20;99.90;;;;;;6186210;23;20186;-79
2022/04/04 06:35:25;;;;;;;15.57;13.43;;;0.20;99.90;;;;;;6185057;23;20183;-79
2022/04/04 06:37:52;;;;;;;19.90;15.00;;;0.30;99.90;;;;;;6184625;23;20484;-79
2022/04/04 06:40:21;;;;;;;16.52;12.93;;;0.40;99.90;;;;;;6188517;23;20501;-79
2022/04/04 06:42:48;;;;;;;21.30;14.05;;;0.50;99.90;;;;;;6186237;23;20174;-79
2022/04/04 06:45:17;;;;;;;16.67;14.88;;;0.60;99.90;;;;;;6185529;23;20560;-80
2022/04/04 06:47:45;;;;;;;20.08;13.43;;;0.60;99.90;;;;;;6184770;23;20198;-79
2022/04/04 06:50:13;;;;;;;19.58;14.73;;;0.70;99.90;;;;;;6185544;23;20222;-80
2022/04/04 06:52:41;;;;;;;17.00;13.15;;;0.70;99.90;;;;;;6185361;23;20183;-79
2022/04/04 06:55:11;;;;;;;16.00;14.40;;;0.80;99.90;;;;;;6187762;23;20175;-79
2022/04/04 06:57:37;;;;;;;19.58;15.55;;;0.90;99.90;;;;;;6195979;23;20190;-79
2022/04/04 07:00:08;;;;;;;16.83;13.98;;;1.00;99.90;;;;;;6187774;23;20171;-80
2022/04/04 07:02:36;;;;;;;18.05;14.75;;;1.10;99.90;;;;;;6186505;23;20229;-80
2022/04/04 07:05:05;;;;;;;18.42;15.88;;;1.20;99.90;;;;;;6189272;23;20182;-81
2022/04/04 07:07:34;;;;;;;17.42;13.85;;;1.20;99.90;;;;;;6186527;23;20174;-80
2022/04/04 07:10:00;;;;;;;17.92;16.00;;;1.30;99.90;;;;;;6185486;23;20234;-80
2022/04/04 07:12:27;;;;;;;18.63;15.52;;;1.50;99.90;;;;;;6188252;23;20670;-80
2022/04/04 07:14:54;;;;;;;21.13;17.55;;;1.50;99.90;;;;;;6186861;23;20179;-80
2022/04/04 07:17:21;;;;;;;16.58;12.65;;;1.60;99.90;;;;;;6201048;23;20187;-80
2022/04/04 07:19:48;;;;;;;21.30;14.80;;;1.70;99.90;;;;;;6191232;23;20217;-80
2022/04/04 07:22:16;;;;;;;19.70;14.75;;;2.00;99.90;;;;;;6188141;23;20206;-81
2022/04/04 07:24:43;;;;;;;17.30;14.60;;;2.80;99.90;;;;;;6198208;23;20179;-79
2022/04/04 07:27:10;;;;;;;18.00;12.98;;;4.00;99.90;;;;;;6195837;23;20183;-81
2022/04/04 07:29:38;;;;;;;19.03;16.50;;;5.20;97.60;;;;;;6204747;23;20305;-80
2022/04/04 07:32:06;;;;;;;15.50;13.83;;;6.10;94.10;;;;;;6192859;23;20437;-81
2022/04/04 07:34:32;;;;;;;17.90;15.80;;;6.30;91.50;;;;;;6187633;23;20394;-81
2022/04/04 07:36:59;;;;;;;17.37;14.87;;;6.20;90.40;;;;;;6188526;23;20937;-77
2022/04/04 07:39:27;;;;;;;17.83;14.27;;;6.50;90.60;;;;;;6186672;23;20750;-84
2022/04/04 07:41:55;;;;;;;23.93;14.87;;;7.00;89.50;;;;;;6198095;23;20406;-83
2022/04/04 07:44:22;;;;;;;18.80;15.77;;;7.40;85.30;;;;;;6205238;23;20449;-84
2022/04/04 07:46:48;;;;;;;19.47;15.83;;;7.50;84.00;;;;;;6191682;23;20390;-86
2022/04/04 07:49:15;;;;;;;15.73;14.20;;;7.80;84.50;;;;;;6188136;23;20508;-86
2022/04/04 07:51:42;;;;;;;14.07;12.63;;;7.60;82.40;;;;;;6187587;23;20441;-83
2022/04/04 07:54:09;;;;;;;17.60;12.77;;;7.50;81.50;;;;;;6186127;23;20405;-84
2022/04/04 07:56:37;;;;;;;14.97;13.00;;;8.20;81.80;;;;;;6184139;23;20406;-83
2022/04/04 07:59:03;;;;;;;14.67;12.17;;;8.80;78.50;;;;;;6188997;23;20444;-83
2022/04/04 08:01:30;;;;;;;13.10;11.80;;;9.70;75.90;;;;;;6185847;23;20433;-85
2022/04/04 08:03:57;;;;;;;13.27;11.90;;;9.50;73.50;;;;;;6187409;23;20410;-80
2022/04/04 08:06:23;;;;;;;13.97;11.83;;;9.40;72.10;;;;;;6190235;23;20440;-81
2022/04/04 08:08:50;;;;;;;11.30;10.20;;;8.80;70.50;;;;;;6192914;23;20441;-79
2022/04/04 08:11:16;;;;;;;17.30;13.40;;;7.80;72.80;;;;;;6203293;23;20544;-79
2022/04/04 08:13:45;;;;;;;14.07;11.73;;;7.60;75.40;;;;;;6202202;23;20896;-82
2022/04/04 08:16:12;;;;;;;11.40;10.27;;;7.80;76.30;;;;;;6187298;23;20457;-79
2022/04/04 08:18:39;;;;;;;13.67;10.97;;;8.20;74.50;;;;;;6188267;23;20406;-79
2022/04/04 08:21:06;;;;;;;15.00;11.00;;;8.60;73.70;;;;;;6187576;23;20506;-79
2022/04/04 08:23:33;;;;;;;20.63;10.60;;;8.80;72.30;;;;;;6190063;23;20504;-78
2022/04/04 08:26:00;;;;;;;11.27;10.13;;;9.10;69.60;;;;;;6191546;23;20476;-79
2022/04/04 08:28:28;;;;;;;12.63;10.57;;;9.20;68.90;;;;;;6188545;23;20433;-79
2022/04/04 08:30:56;;;;;;;9.70;8.80;;;9.10;70.00;;;;;;6188000;23;20473;-80
2022/04/04 08:33:24;;;;;;;13.03;8.77;;;9.30;65.50;;;;;;6187117;23;20885;-80
2022/04/04 08:35:52;;;;;;;8.93;8.13;;;9.90;64.00;;;;;;6186866;23;20441;-79
2022/04/04 08:38:20;;;;;;;7.60;7.00;;;10.50;57.30;;;;;;6187026;23;20425;-79
2022/04/04 08:40:49;;;;;;;11.60;8.83;;;9.80;54.70;;;;;;6186523;23;20425;-79
2022/04/04 08:43:18;;;;;;;9.20;8.30;;;9.80;54.90;;;;;;6185542;23;20429;-80
2022/04/04 08:45:45;;;;;;;16.43;9.10;;;10.90;53.30;;;;;;6187764;23;20469;-80
2022/04/04 08:48:14;;;;;;;9.90;8.63;;;11.80;51.70;;;;;;6187787;23;20410;-80
2022/04/04 08:50:41;;;;;;;9.73;8.73;;;11.80;49.90;;;;;;6186038;23;20953;-80
2022/04/04 08:53:08;;;;;;;8.40;7.23;;;12.70;49.60;;;;;;6186501;23;20466;-80
2022/04/04 08:55:35;;;;;;;11.33;8.97;;;13.40;46.90;;;;;;6186461;23;20456;-80
2022/04/04 08:58:02;;;;;;;7.60;7.00;;;12.90;44.50;;;;;;6195922;23;20413;-79
2022/04/04 09:00:30;;;;;;;8.73;7.97;;;12.60;44.00;;;;;;6197981;23;20434;-79
2022/04/04 09:03:02;;;;;;;9.07;8.37;;;12.70;46.00;;;;;;6191223;23;20407;-80
2022/04/04 09:05:33;;;;;;;9.30;8.40;;;13.50;45.40;;;;;;6188202;23;20412;-77
2022/04/04 09:08:02;;;;;;;9.10;8.20;;;12.00;43.80;;;;;;6187646;23;20857;-79
2022/04/04 09:10:40;;;;;;;8.20;7.43;;;12.10;45.10;;;;;;6188243;23;20446;-80
2022/04/04 09:13:11;;;;;;;9.73;7.53;;;11.40;43.30;;;;;;6188830;23;20390;-80
2022/04/04 09:15:58;;;;;;;8.37;7.57;;;12.30;46.50;;;;;;6189627;23;20549;-79
2022/04/04 09:18:50;;;;;;;8.43;7.73;;;11.80;43.20;;;;;;6208854;23;20396;-79
2022/04/04 09:21:33;;;;;;;8.10;7.30;;;11.40;43.00;;;;;;6172283;23;20437;-79
2022/04/04 09:24:07;;;;;;;8.90;8.00;;;12.00;45.00;;;;;;6197261;23;20892;-80
2022/04/04 09:26:35;;;;;;;8.80;7.13;;;13.00;43.80;;;;;;6192154;23;20386;-80
2022/04/04 09:29:06;;;;;;;8.27;7.53;;;11.80;40.80;;;;;;6208944;23;20398;-79
2022/04/04 09:31:33;;;;;;;11.73;7.30;;;12.50;43.00;;;;;;6200506;23;20477;-81
2022/04/04 09:34:02;;;;;;;7.30;6.70;;;14.90;42.10;;;;;;6196073;23;20401;-80
2022/04/04 09:36:31;;;;;;;7.27;6.50;;;14.00;37.10;;;;;;6193370;23;20462;-80
2022/04/04 09:39:05;;;;;;;6.60;6.00;;;13.30;39.00;;;;;;6190267;23;20456;-81
2022/04/04 09:41:32;;;;;;;7.13;6.43;;;12.50;39.00;;;;;;6191284;23;20417;-81
2022/04/04 09:44:01;;;;;;;7.40;6.80;;;12.40;41.60;;;;;;6189657;23;20402;-80
2022/04/04 09:46:32;;;;;;;8.80;8.00;;;12.60;40.30;;;;;;6188914;23;20409;-81
2022/04/04 09:49:04;;;;;;;8.00;7.30;;;13.70;38.80;;;;;;6189802;23;20381;-81
2022/04/04 09:51:41;;;;;;;7.97;7.30;;;12.40;37.80;;;;;;6188113;23;20455;-81
2022/04/04 09:54:10;;;;;;;7.40;6.70;;;13.20;41.80;;;;;;6188778;23;20392;-82
2022/04/04 09:56:37;;;;;;;7.60;6.80;;;14.30;39.60;;;;;;6189198;23;20406;-81
2022/04/04 09:59:04;;;;;;;7.23;6.53;;;13.30;37.20;;;;;;6187966;23;20420;-80
2022/04/04 10:01:32;;;;;;;8.40;7.70;;;13.90;40.10;;;;;;6187633;23;20433;-81
2022/04/04 10:04:01;;;;;;;7.70;6.97;;;14.10;39.40;;;;;;6189301;23;20560;-80
2022/04/04 10:06:29;;;;;;;8.93;8.13;;;13.80;38.60;;;;;;6190606;23;20409;-79
2022/04/04 10:08:59;;;;;;;7.30;6.60;;;13.60;40.10;;;;;;6189624;23;20399;-81
2022/04/04 10:11:26;;;;;;;7.00;6.50;;;14.90;40.00;;;;;;6187190;23;20447;-81
2022/04/04 10:13:55;;;;;;;8.40;7.70;;;15.80;39.40;;;;;;6186955;23;20417;-81
2022/04/04 10:16:23;;;;;;;7.83;7.23;;;16.10;37.10;;;;;;6186984;23;20498;-81
2022/04/04 10:18:50;;;;;;;8.10;7.50;;;17.80;37.40;;;;;;6187861;23;20430;-81
2022/04/04 10:21:18;;;;;;;7.87;7.27;;;19.50;36.40;;;;;;6188412;23;20445;-80
2022/04/04 10:23:45;;;;;;;7.40;6.80;;;18.20;33.90;;;;;;6189927;23;20410;-80
2022/04/04 10:26:15;;;;;;;7.27;6.67;;;15.90;34.90;;;;;;6201160;23;20404;-79
2022/04/04 10:28:44;;;;;;;8.43;7.73;;;16.10;38.70;;;;;;6197111;23;20412;-81
2022/04/04 10:31:13;;;;;;;8.87;8.03;;;17.60;38.20;;;;;;6192994;23;20481;-80
2022/04/04 10:33:40;;;;;;;9.93;9.13;;;17.60;35.90;;;;;;6197735;23;20454;-80
2022/04/04 10:36:09;;;;;;;8.70;7.90;;;15.60;37.40;;;;;;6191294;23;20743;-80
2022/04/04 10:38:37;;;;;;;9.03;8.20;;;17.60;39.20;;;;;;6190420;23;20452;-81
2022/04/04 10:41:07;;;;;;;9.00;8.30;;;17.70;36.10;;;;;;6191695;23;20564;-78
2022/04/04 10:43:36;;;;;;;7.87;7.23;;;15.90;36.60;;;;;;6200823;23;20409;-80
2022/04/04 10:46:04;;;;;;;8.10;7.40;;;15.40;38.70;;;;;;6196818;23;20414;-81
2022/04/04 10:48:33;;;;;;;9.27;8.57;;;14.90;39.00;;;;;;6190641;23;20494;-79
2022/04/04 10:51:10;;;;;;;8.87;8.17;;;15.30;39.80;;;;;;6188383;23;20451;-81
2022/04/04 10:53:41;;;;;;;9.00;8.20;;;16.60;39.30;;;;;;6190845;23;20447;-80
2022/04/04 10:56:11;;;;;;;8.30;7.60;;;15.40;38.60;;;;;;6190238;23;20402;-79
2022/04/04 10:58:39;;;;;;;7.77;7.17;;;13.00;40.20;;;;;;6191285;23;20412;-80
2022/04/04 11:01:09;;;;;;;8.63;7.87;;;13.90;43.70;;;;;;6193971;23;20422;-80
2022/04/04 11:03:38;;;;;;;8.33;7.60;;;13.90;40.60;;;;;;6188535;23;20399;-80
2022/04/04 11:09:11;;;;;;;7.67;6.97;;;13.40;40.80;;;;;;6194249;23;20440;-79
2022/04/04 11:11:49;;;;;;;7.53;6.93;;;13.90;42.40;;;;;;6204335;23;20444;-81
2022/04/04 11:14:19;;;;;;;8.37;7.70;;;15.60;41.20;;;;;;6189279;23;20414;-79
2022/04/04 11:17:33;;;;;;;6.17;5.67;;;17.30;38.70;;;;;;6204811;23;20394;-81
2022/04/04 11:20:04;;;;;;;6.43;5.97;;;19.50;36.40;;;;;;6195633;23;20391;-82
2022/04/04 11:22:33;;;;;;;6.70;6.20;;;21.50;33.30;;;;;;6188788;23;20491;-81
2022/04/04 11:25:05;;;;;;;7.70;7.10;;;22.50;32.20;;;;;;6188802;23;20737;-81
2022/04/04 11:27:34;;;;;;;7.03;6.53;;;21.60;31.00;;;;;;6188511;23;20495;-82
2022/04/04 11:30:06;;;;;;;6.40;6.00;;;20.20;30.00;;;;;;6188688;23;20419;-82
2022/04/04 11:32:38;;;;;;;5.63;5.13;;;18.60;31.90;;;;;;6188891;23;20433;-82
2022/04/04 11:35:10;;;;;;;6.53;5.83;;;19.40;33.20;;;;;;6189971;23;20404;-81
2022/04/04 11:37:45;;;;;;;6.77;6.03;;;19.20;33.10;;;;;;6188971;23;20386;-81
2022/04/04 11:40:14;;;;;;;6.23;5.73;;;19.40;32.30;;;;;;6188600;23;20805;-81
2022/04/04 11:42:44;;;;;;;8.10;7.37;;;17.60;32.90;;;;;;6190594;23;20414;-80
2022/04/04 11:45:16;;;;;;;5.40;4.90;;;16.20;34.10;;;;;;6199379;23;20433;-80
2022/04/04 11:47:50;;;;;;;6.67;6.13;;;15.70;35.60;;;;;;6196700;23;20390;-80
2022/04/04 11:50:17;;;;;;;6.13;5.60;;;15.20;36.20;;;;;;6195327;23;20429;-80
2022/04/04 11:52:52;;;;;;;6.40;5.67;;;16.50;38.60;;;;;;6196346;23;20398;-81
2022/04/04 11:55:20;;;;;;;6.53;5.93;;;16.50;36.00;;;;;;6190609;23;20402;-80
2022/04/04 11:57:49;;;;;;;7.00;6.40;;;15.30;35.90;;;;;;6188167;23;20403;-80
2022/04/04 12:00:22;;;;;;;7.17;6.60;;;14.30;38.20;;;;;;6187715;23;20406;-81
2022/04/04 12:02:49;;;;;;;9.40;6.73;;;14.80;39.00;;;;;;6187678;23;20730;-80
2022/04/04 12:05:22;;;;;;;6.70;6.10;;;15.90;37.90;;;;;;6191828;23;20416;-80
2022/04/04 12:07:49;;;;;;;7.00;6.30;;;16.40;37.20;;;;;;6193962;23;20378;-81
2022/04/04 12:10:29;;;;;;;7.07;6.47;;;16.30;35.50;;;;;;6187026;23;20813;-81
2022/04/04 12:13:00;;;;;;;7.30;6.80;;;15.50;38.10;;;;;;6187117;23;20399;-81
2022/04/04 12:15:30;;;;;;;6.87;6.37;;;14.90;37.20;;;;;;6187600;23;20411;-81
2022/04/04 12:17:58;;;;;;;6.20;5.60;;;14.30;38.10;;;;;;6187413;23;20422;-80
2022/04/04 12:20:24;;;;;;;6.87;6.27;;;14.30;39.40;;;;;;6189452;23;20407;-81
2022/04/04 12:25:37;;;;;;;8.20;7.40;;;16.00;37.20;;;;;;6186601;23;20369;-80
2022/04/04 12:28:04;;;;;;;6.17;5.67;;;16.90;38.20;;;;;;6191665;23;20421;-80
2022/04/04 12:30:35;;;;;;;9.83;6.60;;;18.10;35.80;;;;;;6193849;23;21015;-80
2022/04/04 12:33:12;;;;;;;6.50;6.00;;;17.40;35.30;;;;;;6187866;23;20393;-81
2022/04/04 12:35:41;;;;;;;7.87;5.90;;;17.10;34.90;;;;;;6188899;23;20583;-80
2022/04/04 12:38:08;;;;;;;6.50;5.90;;;15.90;35.10;;;;;;6186996;23;20413;-81
2022/04/04 12:40:37;;;;;;;7.30;6.63;;;14.80;37.00;;;;;;6195115;23;20419;-79
2022/04/04 12:43:07;;;;;;;6.87;6.37;;;14.80;38.90;;;;;;6193671;23;20474;-81
2022/04/04 12:45:44;;;;;;;7.60;6.90;;;13.90;39.40;;;;;;6188849;23;20925;-80
2022/04/04 12:48:11;;;;;;;13.67;8.03;;;13.90;40.00;;;;;;6188516;23;20401;-81
2022/04/04 12:50:40;;;;;;;7.03;6.33;;;13.80;41.50;;;;;;6188933;23;20446;-79
2022/04/04 12:53:09;;;;;;;10.17;7.27;;;14.20;41.20;;;;;;6188635;23;20386;-80
2022/04/04 12:55:37;;;;;;;7.03;6.43;;;15.80;40.40;;;;;;6196630;23;20456;-78